createdAt,value
2018-09-30T00:02:02.929Z,101883.66
2018-09-30T00:04:30.045Z,101876.66
2018-09-30T00:06:57.204Z,101881.48
2018-09-30T00:09:28.321Z,101874.97
2018-09-30T00:11:55.460Z,101873.55
2018-09-30T00:14:22.620Z,101867.80
2018-09-30T00:16:49.744Z,101866.08
2018-09-30T00:19:16.870Z,101868.79
2018-09-30T00:21:44.137Z,101862.90
2018-09-30T00:24:16.948Z,101860.94
2018-09-30T00:26:49.854Z,101856.66
2018-09-30T00:29:17.013Z,101863.97
2018-09-30T00:31:44.108Z,101852.29
2018-09-30T00:34:17.122Z,101857.75
2018-09-30T00:36:44.213Z,101855.06
2018-09-30T00:39:11.336Z,101851.17
2018-09-30T00:41:38.549Z,101846.47
2018-09-30T00:44:05.737Z,101844.23
2018-09-30T00:46:32.973Z,101845.80
2018-09-30T00:49:00.196Z,101841.05
2018-09-30T00:51:27.384Z,101835.34
2018-09-30T00:53:54.488Z,101832.20
2018-09-30T00:56:21.773Z,101826.66
2018-09-30T00:58:48.885Z,101828.98
2018-09-30T01:01:16.020Z,101822.05
2018-09-30T01:03:43.280Z,101818.77
2018-09-30T01:06:10.428Z,101818.66
2018-09-30T01:08:37.541Z,101811.64
2018-09-30T01:11:04.968Z,101807.68
2018-09-30T01:13:32.100Z,101805.14
2018-09-30T01:15:59.260Z,101805.39
2018-09-30T01:18:26.536Z,101802.11
2018-09-30T01:20:53.684Z,101803.08
2018-09-30T01:23:20.936Z,101805.14
2018-09-30T01:25:48.176Z,101803.51
2018-09-30T01:28:15.338Z,101799.85
2018-09-30T01:36:38.291Z,101787.56
2018-09-30T01:39:06.552Z,101785.30
2018-09-30T01:41:33.751Z,101784.25
2018-09-30T01:44:01.125Z,101776.16
2018-09-30T01:46:28.309Z,101778.92
2018-09-30T01:48:55.539Z,101780.30
2018-09-30T01:51:22.828Z,101776.75
2018-09-30T01:53:50.020Z,101776.62
2018-09-30T01:56:17.216Z,101771.92
2018-09-30T01:58:44.448Z,101778.84
2018-09-30T02:01:11.739Z,101769.78
2018-09-30T02:03:38.897Z,101762.56
2018-09-30T02:06:06.234Z,101760.55
2018-09-30T02:08:33.528Z,101760.34
2018-09-30T02:11:00.685Z,101757.36
2018-09-30T02:13:27.896Z,101754.89
2018-09-30T02:15:55.092Z,101742.23
2018-09-30T02:18:22.294Z,101742.44
2018-09-30T02:20:49.525Z,101735.89
2018-09-30T02:23:16.700Z,101728.21
2018-09-30T02:25:43.888Z,101727.87
2018-09-30T02:28:11.164Z,101726.83
2018-09-30T02:30:38.325Z,101720.12
2018-09-30T02:33:05.537Z,101710.44
2018-09-30T02:35:32.825Z,101705.36
2018-09-30T02:37:59.985Z,101708.76
2018-09-30T02:40:27.158Z,101703.63
2018-09-30T02:42:54.410Z,101696.84
2018-09-30T02:45:21.668Z,101688.97
2018-09-30T02:47:48.817Z,101690.39
2018-09-30T02:50:16.046Z,101684.62
2018-09-30T02:52:43.233Z,101684.48
2018-09-30T02:55:10.401Z,101693.41
2018-09-30T02:57:37.779Z,101682.47
2018-09-30T03:00:04.981Z,101687.62
2018-09-30T03:02:32.209Z,101682.02
2018-09-30T03:04:59.521Z,101685.75
2018-09-30T03:07:32.446Z,101679.32
2018-09-30T03:09:59.758Z,101682.89
2018-09-30T03:12:26.936Z,101675.18
2018-09-30T03:14:54.131Z,101678.13
2018-09-30T03:17:21.349Z,101678.28
2018-09-30T03:19:48.507Z,101676.56
2018-09-30T03:22:15.726Z,101673.09
2018-09-30T03:24:42.959Z,101673.34
2018-09-30T03:27:10.155Z,101673.17
2018-09-30T03:29:37.357Z,101669.40
2018-09-30T03:32:04.849Z,101660.17
2018-09-30T03:34:32.089Z,101659.50
2018-09-30T03:36:59.271Z,101650.16
2018-09-30T03:39:26.589Z,101649.23
2018-09-30T03:41:53.748Z,101645.84
2018-09-30T03:44:20.957Z,101640.44
2018-09-30T03:46:48.402Z,101642.19
2018-09-30T03:49:15.541Z,101632.27
2018-09-30T03:51:42.700Z,101635.07
2018-09-30T03:54:09.973Z,101627.32
2018-09-30T03:56:37.159Z,101624.14
2018-09-30T03:59:04.318Z,101625.56
2018-09-30T04:01:31.534Z,101617.64
2018-09-30T04:03:58.737Z,101617.14
2018-09-30T04:06:25.954Z,101604.23
2018-09-30T04:08:53.164Z,101609.30
2018-09-30T04:11:20.381Z,101599.03
2018-09-30T04:13:47.535Z,101595.06
2018-09-30T04:16:14.841Z,101595.31
2018-09-30T04:18:42.036Z,101595.44
2018-09-30T04:21:09.256Z,101593.00
2018-09-30T04:23:36.544Z,101587.13
2018-09-30T04:26:03.712Z,101587.69
2018-09-30T04:28:30.892Z,101580.14
2018-09-30T04:30:58.137Z,101580.69
2018-09-30T04:33:25.408Z,101575.54
2018-09-30T04:35:52.589Z,101570.34
2018-09-30T04:38:19.897Z,101572.35
2018-09-30T04:40:47.092Z,101580.98
2018-09-30T04:43:14.270Z,101572.47
2018-09-30T04:45:41.513Z,101580.98
2018-09-30T04:48:08.699Z,101571.34
2018-09-30T04:50:35.873Z,101574.78
2018-09-30T04:53:03.106Z,101569.80
2018-09-30T04:55:30.284Z,101580.90
2018-09-30T04:57:57.454Z,101581.27
2018-09-30T05:00:24.678Z,101581.91
2018-09-30T05:02:51.969Z,101579.05
2018-09-30T05:05:19.161Z,101582.62
2018-09-30T05:07:46.496Z,101588.10
2018-09-30T05:10:13.687Z,101593.05
2018-09-30T05:12:40.900Z,101594.13
2018-09-30T05:15:08.180Z,101592.55
2018-09-30T05:17:35.581Z,101585.17
2018-09-30T05:20:02.780Z,101585.51
2018-09-30T05:22:30.140Z,101590.49
2018-09-30T05:24:57.311Z,101586.72
2018-09-30T05:27:24.571Z,101582.36
2018-09-30T05:29:51.833Z,101584.38
2018-09-30T05:32:19.133Z,101589.70
2018-09-30T05:34:46.400Z,101581.65
2018-09-30T05:37:13.784Z,101584.29
2018-09-30T05:39:40.912Z,101580.02
2018-09-30T05:42:08.142Z,101580.79
2018-09-30T05:44:35.349Z,101576.55
2018-09-30T05:47:02.516Z,101577.96
2018-09-30T05:49:29.884Z,101573.08
2018-09-30T05:51:57.197Z,101574.70
2018-09-30T05:54:24.368Z,101572.21
2018-09-30T05:56:51.544Z,101560.47
2018-09-30T05:59:18.748Z,101562.09
2018-09-30T06:01:45.929Z,101560.92
2018-09-30T06:04:13.113Z,101558.13
2018-09-30T06:06:40.409Z,101557.63
2018-09-30T06:09:10.676Z,101553.19
2018-09-30T06:11:37.841Z,101555.20
2018-09-30T06:14:05.372Z,101557.34
2018-09-30T06:16:32.476Z,101553.73
2018-09-30T06:18:59.680Z,101549.52
2018-09-30T06:21:26.925Z,101554.88
2018-09-30T06:23:54.172Z,101557.69
2018-09-30T06:26:21.349Z,101554.80
2018-09-30T06:28:48.577Z,101558.02
2018-09-30T06:31:17.803Z,101562.95
2018-09-30T06:33:44.973Z,101564.38
2018-09-30T06:36:12.280Z,101566.77
2018-09-30T06:38:39.484Z,101565.58
2018-09-30T06:41:07.096Z,101557.92
2018-09-30T06:43:34.388Z,101556.33
2018-09-30T06:46:01.652Z,101547.79
2018-09-30T06:48:29.962Z,101548.77
2018-09-30T06:50:57.309Z,101541.45
2018-09-30T06:53:24.564Z,101544.12
2018-09-30T06:55:51.788Z,101550.69
2018-09-30T06:58:19.261Z,101541.13
2018-09-30T07:00:46.646Z,101546.81
2018-09-30T07:03:13.789Z,101545.50
2018-09-30T07:05:41.635Z,101547.69
2018-09-30T07:08:08.849Z,101538.05
2018-09-30T07:10:37.949Z,101529.73
2018-09-30T07:13:05.380Z,101526.62
2018-09-30T07:15:32.613Z,101526.15
2018-09-30T07:18:00.160Z,101521.22
2018-09-30T07:20:27.689Z,101522.92
2018-09-30T07:22:54.912Z,101529.81
2018-09-30T07:25:22.061Z,101520.00
2018-09-30T07:27:49.263Z,101523.33
2018-09-30T07:30:16.437Z,101521.05
2018-09-30T07:32:43.586Z,101517.27
2018-09-30T07:35:10.852Z,101515.37
2018-09-30T07:37:38.037Z,101525.28
2018-09-30T07:40:05.346Z,101515.34
2018-09-30T07:42:32.634Z,101522.25
2018-09-30T07:44:59.876Z,101524.08
2018-09-30T07:47:27.338Z,101523.92
2018-09-30T07:49:54.562Z,101515.36
2018-09-30T07:52:21.782Z,101517.18
2018-09-30T07:54:49.065Z,101517.71
2018-09-30T07:57:16.456Z,101522.20
2018-09-30T07:59:43.651Z,101522.30
2018-09-30T08:02:10.822Z,101522.33
2018-09-30T08:04:38.117Z,101516.88
2018-09-30T08:07:05.408Z,101518.77
2018-09-30T08:09:32.566Z,101522.00
2018-09-30T08:11:59.918Z,101516.55
2018-09-30T08:14:27.114Z,101510.84
2018-09-30T08:16:54.373Z,101514.42
2018-09-30T08:19:21.528Z,101508.55
2018-09-30T08:21:48.716Z,101495.41
2018-09-30T08:24:15.983Z,101504.03
2018-09-30T08:26:43.169Z,101499.49
2018-09-30T08:29:10.356Z,101488.66
2018-09-30T08:31:37.529Z,101489.86
2018-09-30T08:34:04.841Z,101483.34
2018-09-30T08:36:32.067Z,101481.13
2018-09-30T08:38:59.228Z,101480.01
2018-09-30T08:41:28.252Z,101488.05
2018-09-30T08:43:55.530Z,101474.17
2018-09-30T08:46:23.738Z,101475.02
2018-09-30T08:48:51.031Z,101473.18
2018-09-30T08:51:18.245Z,101471.09
2018-09-30T08:53:45.477Z,101470.81
2018-09-30T08:56:12.795Z,101466.59
2018-09-30T08:58:43.577Z,101464.25
2018-09-30T09:01:11.916Z,101469.86
2018-09-30T09:03:39.142Z,101464.75
2018-09-30T09:06:06.364Z,101462.84
2018-09-30T09:08:33.727Z,101458.25
2018-09-30T09:11:00.921Z,101460.91
2018-09-30T09:13:29.171Z,101459.34
2018-09-30T09:15:56.408Z,101453.31
2018-09-30T09:18:23.633Z,101459.00
2018-09-30T09:20:51.818Z,101458.92
2018-09-30T09:23:19.012Z,101454.94
2018-09-30T09:25:46.170Z,101461.45
2018-09-30T09:28:13.396Z,101454.92
2018-09-30T09:30:40.794Z,101454.08
2018-09-30T09:33:08.130Z,101453.02
2018-09-30T09:35:35.259Z,101450.48
2018-09-30T09:38:02.447Z,101439.22
2018-09-30T09:40:29.607Z,101444.41
2018-09-30T09:42:56.787Z,101432.94
2018-09-30T09:45:24.094Z,101432.14
2018-09-30T09:47:52.931Z,101421.16
2018-09-30T09:50:20.163Z,101423.08
2018-09-30T09:52:50.028Z,101418.85
2018-09-30T09:55:17.362Z,101414.26
2018-09-30T09:57:44.560Z,101412.47
2018-09-30T10:00:16.321Z,101411.76
2018-09-30T10:02:43.479Z,101409.22
2018-09-30T10:05:10.773Z,101407.05
2018-09-30T10:07:37.945Z,101404.86
2018-09-30T10:10:05.149Z,101395.36
2018-09-30T10:12:32.361Z,101397.10
2018-09-30T10:14:59.622Z,101399.76
2018-09-30T10:17:27.816Z,101389.87
2018-09-30T10:19:55.068Z,101382.81
2018-09-30T10:22:22.370Z,101379.80
2018-09-30T10:24:49.565Z,101372.67
2018-09-30T10:27:16.758Z,101362.08
2018-09-30T10:29:43.948Z,101350.67
2018-09-30T10:32:11.101Z,101348.86
2018-09-30T10:34:38.248Z,101344.84
2018-09-30T10:37:05.500Z,101345.34
2018-09-30T10:39:32.774Z,101340.65
2018-09-30T10:41:59.977Z,101334.73
2018-09-30T10:44:27.197Z,101324.11
2018-09-30T10:46:54.366Z,101320.47
2018-09-30T10:49:21.632Z,101321.10
2018-09-30T10:51:48.861Z,101318.59
2018-09-30T10:54:19.415Z,101310.72
2018-09-30T10:56:46.882Z,101304.11
2018-09-30T10:59:15.017Z,101296.98
2018-09-30T11:02:01.105Z,101297.84
2018-09-30T11:04:37.125Z,101296.92
2018-09-30T11:07:05.410Z,101295.59
2018-09-30T11:09:35.049Z,101290.36
2018-09-30T11:12:02.436Z,101285.05
2018-09-30T11:14:29.945Z,101280.92
2018-09-30T11:16:59.355Z,101275.95
2018-09-30T11:19:26.530Z,101269.39
2018-09-30T11:21:53.832Z,101263.96
2018-09-30T11:24:21.077Z,101258.75
2018-09-30T11:26:48.768Z,101254.67
2018-09-30T11:29:15.947Z,101249.08
2018-09-30T11:31:43.195Z,101248.13
2018-09-30T11:34:10.416Z,101248.94
2018-09-30T11:36:37.652Z,101242.08
2018-09-30T11:39:07.856Z,101242.80
2018-09-30T11:41:35.040Z,101231.55
2018-09-30T11:44:02.243Z,101222.65
2018-09-30T11:46:29.524Z,101215.86
2018-09-30T11:48:56.825Z,101207.98
2018-09-30T11:51:24.042Z,101202.77
2018-09-30T11:53:51.413Z,101198.57
2018-09-30T11:56:18.615Z,101193.78
2018-09-30T11:58:45.781Z,101204.31
2018-09-30T12:01:13.256Z,101192.56
2018-09-30T12:03:40.435Z,101199.89
2018-09-30T12:06:07.634Z,101198.37
2018-09-30T12:08:34.969Z,101192.52
2018-09-30T12:11:02.150Z,101181.00
2018-09-30T12:13:29.477Z,101173.09
2018-09-30T12:15:56.881Z,101175.24
2018-09-30T12:18:24.120Z,101168.19
2018-09-30T12:20:51.378Z,101168.48
2018-09-30T12:23:18.961Z,101165.99
2018-09-30T12:25:46.161Z,101154.21
2018-09-30T12:28:13.308Z,101152.83
2018-09-30T12:30:40.612Z,101146.07
2018-09-30T12:33:07.793Z,101139.61
2018-09-30T12:35:34.947Z,101133.51
2018-09-30T12:38:02.157Z,101133.34
2018-09-30T12:40:29.371Z,101128.92
2018-09-30T12:42:56.510Z,101119.42
2018-09-30T12:45:23.821Z,101123.37
2018-09-30T12:47:50.995Z,101117.09
2018-09-30T12:50:18.191Z,101111.13
2018-09-30T12:52:45.419Z,101108.91
2018-09-30T12:55:12.756Z,101107.61
2018-09-30T12:57:39.941Z,101103.52
2018-09-30T13:00:08.041Z,101100.22
2018-09-30T13:02:36.196Z,101105.38
2018-09-30T13:05:03.411Z,101094.23
2018-09-30T13:07:30.614Z,101094.28
2018-09-30T13:09:58.089Z,101095.92
2018-09-30T13:12:25.670Z,101089.31
2018-09-30T13:14:53.121Z,101095.39
2018-09-30T13:17:20.564Z,101086.62
2018-09-30T13:19:47.672Z,101086.39
2018-09-30T13:22:14.846Z,101081.04
2018-09-30T13:24:42.017Z,101077.98
2018-09-30T13:27:09.205Z,101074.08
2018-09-30T13:29:36.517Z,101070.95
2018-09-30T13:32:03.616Z,101068.83
2018-09-30T13:34:32.193Z,101054.89
2018-09-30T13:36:59.424Z,101047.11
2018-09-30T13:39:26.554Z,101044.59
2018-09-30T13:41:53.849Z,101043.41
2018-09-30T13:44:21.240Z,101057.85
2018-09-30T13:46:48.416Z,101048.51
2018-09-30T13:49:15.550Z,101043.41
2018-09-30T13:51:42.809Z,101042.19
2018-09-30T13:54:09.948Z,101040.81
2018-09-30T13:56:37.162Z,101042.25
2018-09-30T13:59:04.530Z,101043.19
2018-09-30T14:01:31.647Z,101039.83
2018-09-30T14:03:58.851Z,101037.41
2018-09-30T14:06:28.784Z,101031.88
2018-09-30T14:08:55.893Z,101025.53
2018-09-30T14:11:23.044Z,101021.64
2018-09-30T14:13:51.016Z,101016.52
2018-09-30T14:16:18.379Z,101020.77
2018-09-30T14:18:45.518Z,101018.31
2018-09-30T14:21:12.797Z,101020.34
2018-09-30T14:23:39.972Z,101016.09
2018-09-30T14:26:07.172Z,101015.16
2018-09-30T14:28:34.341Z,101007.31
2018-09-30T14:31:01.485Z,101007.71
2018-09-30T14:33:31.233Z,101005.38
2018-09-30T14:35:58.508Z,101000.95
2018-09-30T14:38:26.249Z,100992.44
2018-09-30T14:40:53.467Z,100983.55
2018-09-30T14:45:59.501Z,100975.36
2018-09-30T14:48:26.703Z,100971.25
2018-09-30T14:50:54.213Z,100969.47
2018-09-30T14:53:21.880Z,100960.48
2018-09-30T14:55:49.005Z,100961.10
2018-09-30T14:58:16.172Z,100959.80
2018-09-30T15:00:43.480Z,100960.39
2018-09-30T15:03:10.607Z,100951.84
2018-09-30T15:05:37.757Z,100953.13
2018-09-30T15:08:05.201Z,100952.98
2018-09-30T15:10:32.316Z,100953.58
2018-09-30T15:12:59.473Z,100949.99
2018-09-30T15:15:26.733Z,100950.06
2018-09-30T15:17:53.859Z,100943.93
2018-09-30T15:20:21.020Z,100947.86
2018-09-30T15:22:48.264Z,100944.16
2018-09-30T15:25:15.437Z,100944.16
2018-09-30T15:27:42.790Z,100943.05
2018-09-30T15:30:10.013Z,100941.37
2018-09-30T15:32:37.161Z,100935.64
2018-09-30T15:35:04.287Z,100918.44
2018-09-30T15:37:31.512Z,100926.53
2018-09-30T15:39:58.637Z,100927.57
2018-09-30T15:42:25.796Z,100923.17
2018-09-30T15:44:53.106Z,100915.59
2018-09-30T15:47:20.380Z,100918.20
2018-09-30T15:49:47.557Z,100919.02
2018-09-30T15:52:14.893Z,100929.12
2018-09-30T15:54:42.089Z,100917.55
2018-09-30T15:57:09.285Z,100923.73
2018-09-30T15:59:36.577Z,100929.89
2018-09-30T16:02:03.735Z,100919.64
2018-09-30T16:04:30.974Z,100912.45
2018-09-30T16:06:58.834Z,100917.77
2018-09-30T16:09:26.113Z,100909.01
2018-09-30T16:11:53.280Z,100904.78
2018-09-30T16:14:20.925Z,100900.64
2018-09-30T16:16:48.125Z,100900.55
2018-09-30T16:19:15.309Z,100894.16
2018-09-30T16:21:42.534Z,100898.97
2018-09-30T16:24:09.715Z,100894.59
2018-09-30T16:26:36.904Z,100889.78
2018-09-30T16:29:04.238Z,100892.53
2018-09-30T16:31:31.400Z,100891.32
2018-09-30T16:33:58.550Z,100887.73
2018-09-30T16:36:25.836Z,100887.38
2018-09-30T16:38:52.973Z,100888.81
2018-09-30T16:41:20.269Z,100891.55
2018-09-30T16:43:47.429Z,100888.05
2018-09-30T16:46:14.655Z,100895.59
2018-09-30T16:48:41.804Z,100897.35
2018-09-30T16:51:09.097Z,100896.98
2018-09-30T16:53:36.369Z,100898.72
2018-09-30T16:56:03.932Z,100891.28
2018-09-30T16:58:31.116Z,100903.51
2018-09-30T17:00:58.268Z,100902.60
2018-09-30T17:03:25.425Z,100902.11
2018-09-30T17:05:52.764Z,100906.84
2018-09-30T17:08:19.911Z,100908.06
2018-09-30T17:10:47.101Z,100907.90
2018-09-30T17:13:14.289Z,100906.44
2018-09-30T17:15:41.461Z,100904.95
2018-09-30T17:18:08.640Z,100906.03
2018-09-30T17:20:35.931Z,100901.87
2018-09-30T17:23:03.062Z,100904.27
2018-09-30T17:25:30.238Z,100907.49
2018-09-30T17:27:57.604Z,100908.97
2018-09-30T17:30:24.763Z,100906.06
2018-09-30T17:32:51.959Z,100903.66
2018-09-30T17:35:19.179Z,100900.33
2018-09-30T17:37:46.320Z,100899.23
2018-09-30T17:40:13.444Z,100897.99
2018-09-30T17:42:40.585Z,100898.97
2018-09-30T17:45:07.837Z,100897.78
2018-09-30T17:47:34.979Z,100901.43
2018-09-30T17:50:02.276Z,100894.55
2018-09-30T17:52:29.402Z,100895.93
2018-09-30T17:54:56.525Z,100886.41
2018-09-30T17:57:23.917Z,100895.64
2018-09-30T17:59:51.060Z,100887.45
2018-09-30T18:02:18.196Z,100888.02
2018-09-30T18:04:45.388Z,100883.28
2018-09-30T18:07:12.557Z,100884.23
2018-09-30T18:09:39.679Z,100881.29
2018-09-30T18:12:06.860Z,100878.77
2018-09-30T18:14:33.969Z,100889.38
2018-09-30T18:17:01.172Z,100884.66
2018-09-30T18:19:28.864Z,100879.47
2018-09-30T18:21:55.989Z,100877.36
2018-09-30T18:24:23.116Z,100876.08
2018-09-30T18:26:50.348Z,100876.59
2018-09-30T18:29:17.568Z,100879.66
2018-09-30T18:31:45.068Z,100879.69
2018-09-30T18:34:12.340Z,100876.67
2018-09-30T18:36:39.428Z,100881.12
2018-09-30T18:39:07.892Z,100873.72
2018-09-30T18:41:35.184Z,100879.93
2018-09-30T18:44:02.776Z,100878.64
2018-09-30T18:46:29.897Z,100872.18
2018-09-30T18:48:57.156Z,100867.02
2018-09-30T18:51:24.300Z,100866.66
2018-09-30T18:53:51.907Z,100865.79
2018-09-30T18:56:19.612Z,100864.08
2018-09-30T18:58:47.429Z,100864.56
2018-09-30T19:01:14.552Z,100864.56
2018-09-30T19:03:41.700Z,100862.47
2018-09-30T19:06:09.048Z,100864.67
2018-09-30T19:08:36.837Z,100869.09
2018-09-30T19:11:04.087Z,100859.97
2018-09-30T19:13:31.232Z,100858.73
2018-09-30T19:15:58.426Z,100855.31
2018-09-30T19:18:25.903Z,100854.94
2018-09-30T19:20:53.465Z,100852.34
2018-09-30T19:23:20.564Z,100844.13
2018-09-30T19:25:47.708Z,100845.05
2018-09-30T19:28:14.812Z,100840.26
2018-09-30T19:30:41.922Z,100839.40
2018-09-30T19:33:09.143Z,100834.60
2018-09-30T19:35:36.250Z,100831.17
2018-09-30T19:38:03.344Z,100826.86
2018-09-30T19:40:30.883Z,100832.98
2018-09-30T19:42:58.049Z,100824.28
2018-09-30T19:45:25.145Z,100816.91
2018-09-30T19:47:52.348Z,100819.54
2018-09-30T19:50:19.467Z,100814.80
2018-09-30T19:52:46.570Z,100813.55
2018-09-30T19:55:13.707Z,100817.47
2018-09-30T19:57:40.845Z,100810.11
2018-09-30T20:00:08.038Z,100810.55
2018-09-30T20:02:35.195Z,100805.38
2018-09-30T20:05:02.489Z,100811.91
2018-09-30T20:07:29.636Z,100810.66
2018-09-30T20:09:56.850Z,100812.83
2018-09-30T20:12:24.052Z,100812.44
2018-09-30T20:14:51.190Z,100810.73
2018-09-30T20:17:18.380Z,100811.64
2018-09-30T20:19:45.524Z,100805.12
2018-09-30T20:22:12.681Z,100807.72
2018-09-30T20:24:40.182Z,100805.11
2018-09-30T20:27:07.884Z,100805.12
2018-09-30T20:29:35.444Z,100804.68
2018-09-30T20:32:02.624Z,100795.58
2018-09-30T20:34:29.809Z,100797.75
2018-09-30T20:36:57.021Z,100791.72
2018-09-30T20:39:24.228Z,100789.08
2018-09-30T20:41:51.372Z,100792.99
2018-09-30T20:44:18.489Z,100791.72
2018-09-30T20:46:45.700Z,100788.70
2018-09-30T20:49:12.801Z,100771.30
2018-09-30T20:51:39.931Z,100780.87
2018-09-30T20:54:07.081Z,100777.39
2018-09-30T20:56:34.252Z,100771.30
2018-09-30T20:59:01.393Z,100770.02
2018-09-30T21:01:28.575Z,100767.88
2018-09-30T21:03:55.699Z,100763.95
2018-09-30T21:06:25.188Z,100764.41
2018-09-30T21:08:52.351Z,100763.56
2018-09-30T21:11:19.491Z,100754.43
2018-09-30T21:13:46.762Z,100759.19
2018-09-30T21:16:14.472Z,100760.08
2018-09-30T21:18:42.074Z,100752.69
2018-09-30T21:21:09.240Z,100747.91
2018-09-30T21:23:36.400Z,100748.80
2018-09-30T21:26:03.527Z,100747.07
2018-09-30T21:28:30.685Z,100747.06
2018-09-30T21:30:57.919Z,100745.76
2018-09-30T21:33:25.201Z,100746.63
2018-09-30T21:35:52.433Z,100743.17
2018-09-30T21:38:19.852Z,100744.45
2018-09-30T21:40:47.095Z,100747.06
2018-09-30T21:43:14.260Z,100740.97
2018-09-30T21:45:41.835Z,100733.17
2018-09-30T21:48:08.941Z,100730.56
2018-09-30T21:50:36.070Z,100728.40
2018-09-30T21:53:03.272Z,100730.99
2018-09-30T21:55:30.392Z,100720.59
2018-09-30T21:57:57.516Z,100728.41
2018-09-30T22:00:30.760Z,100727.94
2018-09-30T22:02:57.885Z,100722.75
2018-09-30T22:05:25.092Z,100723.62
2018-09-30T22:07:52.380Z,100720.12
2018-09-30T22:10:19.520Z,100717.09
2018-09-30T22:12:46.867Z,100718.83
2018-09-30T22:15:14.136Z,100713.20
2018-09-30T22:17:41.271Z,100714.06
2018-09-30T22:20:08.419Z,100712.31
2018-09-30T22:22:35.573Z,100715.37
2018-09-30T22:25:02.750Z,100715.37
2018-09-30T22:27:29.911Z,100713.19
2018-09-30T22:29:57.089Z,100709.70
2018-09-30T22:32:24.292Z,100706.67
2018-09-30T22:34:51.409Z,100707.55
2018-09-30T22:37:18.736Z,100700.61
2018-09-30T22:39:45.853Z,100700.15
2018-09-30T22:42:12.979Z,100708.83
2018-09-30T22:44:40.156Z,100703.59
2018-09-30T22:47:07.311Z,100697.52
2018-09-30T22:49:34.449Z,100692.31
2018-09-30T22:52:01.591Z,100698.37
2018-09-30T22:54:28.704Z,100688.83
2018-09-30T22:56:55.849Z,100692.33
2018-09-30T22:59:23.031Z,100687.98
2018-09-30T23:01:50.168Z,100686.23
2018-09-30T23:04:17.304Z,100678.84
2018-09-30T23:06:44.561Z,100682.30
2018-09-30T23:09:11.682Z,100674.52
2018-09-30T23:11:38.779Z,100680.17
2018-09-30T23:14:06.401Z,100685.38
2018-09-30T23:16:33.645Z,100674.99
2018-09-30T23:19:00.772Z,100671.94
2018-09-30T23:21:27.935Z,100686.70
2018-09-30T23:23:55.065Z,100687.14
2018-09-30T23:26:22.220Z,100682.78
2018-09-30T23:28:49.377Z,100684.98
2018-09-30T23:31:16.557Z,100687.53
2018-09-30T23:33:43.636Z,100681.91
2018-09-30T23:36:10.781Z,100686.23
2018-09-30T23:38:37.936Z,100686.23
2018-09-30T23:41:05.260Z,100680.15
2018-09-30T23:43:32.439Z,100683.63
2018-09-30T23:45:59.655Z,100674.09
2018-09-30T23:48:26.813Z,100677.13
2018-09-30T23:50:54.105Z,100679.30
2018-09-30T23:53:21.229Z,100672.78
2018-09-30T23:55:48.345Z,100677.13
2018-09-30T23:58:21.296Z,100674.52
